Contact Us:
Email: info@sawbill.com
Phone: (218)663-7150
Fax: (218)663-7980
Mail: 4620 Sawbill Trail
Box 2129
Tofte, MN 55615


Powered by
Movable Type 3.15
 
Sawbill Weather History Archives: July 2009
Current Sawbill Weather History | « June 2009 | August 2009 »


Date

High
Temperature

Low
Temperature

Barometric
Pressure

Relative
Humidity 7AM

9 AM
Temperature

Moisture

Snow

7/31/09 67 49 29.74 96% 56 .23"
7/30/09 66 49 30.06 88% 49 .09"
7/29/09 66 51 30.02 89% 51 0
7/28/09 73 53 29.97 90% 56 .1"
7/27/09 72 59 29.82 88% 59 .02"
7/26/09 71 58 29.97 95% 61 0
7/25/09 67 59 30.30 98% 60 .14"
7/24/09 68 58 29.80 98% 59 .19"
7/23/09 73 49 29.85 97% 58 .12"
7/22/09 68 40 30.09 92% 50 0
7/21/09 64 55 30.12 98% 58 .79"
7/20/09 69 52 30.06 98% 57 .26"
7/19/09 69 46 30.18 81% 52 0
7/18/09 59 50 30.24 95% 50 0
7/17/09 56 50 30.12 91% 50 .09"
7/16/09 53 50 29.94 98% 50 .19"
7/15/09 64 51 29.85 87% 51 .01"
7/14/09 67 49 29.77 59% 59 .7"
7/13/09 72 48 30.15 75% 49 0
7/12/09 67 45 30.21 77% 50 0
7/11/09 64 44 30.18 74% 44 0
7/10/09 76 52 30.09 85% 52 .05"
7/9/09 67 60 29.92 98% 61 0
7/8/09 69 42 30.11 98% 45 0
7/7/09 67 41 30.02 92% 42 0
7/6/09 69 47 32.02 83% 50 0
7/5/09 72 41 30.09 72% 41 0
7/4/09 71 49 30.06 75% 56 0
7/3/09 69 47 30.12 84% 49 0
7/2/09 64 50 30.18 94% 52 0
7/1/09 62 49 29.72 98% 50 .01"
 


Home I Trip Planning I Rentals and Outfitting I Reservations I Campgrounds I Sawbill Store I Sawbill News I Contact

© 1997 - 2017, Sawbill Canoe Outfitters, Inc. I Privacy Policy